sensor_id;sensor_type;location;lat;lon;timestamp;pressure;altitude;pressure_sealevel;temperature;humidity
9893;BME280;4985;49.092;8.542;2023-03-04T00:00:59;99973.09;;;12.99;52.67
9893;BME280;4985;49.092;8.542;2023-03-04T00:03:27;99975.75;;;12.99;52.68
9893;BME280;4985;49.092;8.542;2023-03-04T00:05:54;99978.37;;;12.99;52.67
9893;BME280;4985;49.092;8.542;2023-03-04T00:08:20;99968.81;;;12.98;52.69
9893;BME280;4985;49.092;8.542;2023-03-04T00:10:47;99978.72;;;12.96;52.69
9893;BME280;4985;49.092;8.542;2023-03-04T00:13:13;99985.66;;;12.97;52.69
9893;BME280;4985;49.092;8.542;2023-03-04T00:15:41;99980.38;;;12.97;52.70
9893;BME280;4985;49.092;8.542;2023-03-04T00:18:07;99983.00;;;12.97;52.71
9893;BME280;4985;49.092;8.542;2023-03-04T00:20:35;99984.84;;;12.96;52.71
9893;BME280;4985;49.092;8.542;2023-03-04T00:23:02;99987.47;;;12.96;52.71
9893;BME280;4985;49.092;8.542;2023-03-04T00:25:28;99987.63;;;12.95;52.73
9893;BME280;4985;49.092;8.542;2023-03-04T00:27:55;99982.34;;;12.95;52.75
9893;BME280;4985;49.092;8.542;2023-03-04T00:30:22;99978.87;;;12.94;52.74
9893;BME280;4985;49.092;8.542;2023-03-04T00:32:49;99985.00;;;12.95;52.74
9893;BME280;4985;49.092;8.542;2023-03-04T00:35:16;99974.88;;;12.90;52.73
9893;BME280;4985;49.092;8.542;2023-03-04T00:37:44;99986.81;;;12.94;52.73
9893;BME280;4985;49.092;8.542;2023-03-04T00:40:11;99991.09;;;12.95;52.72
9893;BME280;4985;49.092;8.542;2023-03-04T00:42:38;99986.00;;;12.94;52.72
9893;BME280;4985;49.092;8.542;2023-03-04T00:45:05;99989.47;;;12.94;52.72
9893;BME280;4985;49.092;8.542;2023-03-04T00:47:32;99984.16;;;12.94;52.72
9893;BME280;4985;49.092;8.542;2023-03-04T00:49:59;99986.66;;;12.96;52.72
9893;BME280;4985;49.092;8.542;2023-03-04T00:52:25;99986.00;;;12.94;52.71
9893;BME280;4985;49.092;8.542;2023-03-04T00:54:53;99986.00;;;12.94;52.70
9893;BME280;4985;49.092;8.542;2023-03-04T00:57:20;99984.34;;;12.93;52.71
9893;BME280;4985;49.092;8.542;2023-03-04T00:59:46;99984.34;;;12.93;52.70
9893;BME280;4985;49.092;8.542;2023-03-04T01:02:13;99982.53;;;12.93;52.71
9893;BME280;4985;49.092;8.542;2023-03-04T01:04:39;99983.50;;;12.92;52.69
9893;BME280;4985;49.092;8.542;2023-03-04T01:07:07;99986.00;;;12.94;52.68
9893;BME280;4985;49.092;8.542;2023-03-04T01:09:33;99981.69;;;12.93;52.69
9893;BME280;4985;49.092;8.542;2023-03-04T01:12:02;99979.06;;;12.93;52.69
9893;BME280;4985;49.092;8.542;2023-03-04T01:14:28;99979.88;;;12.93;52.69
9893;BME280;4985;49.092;8.542;2023-03-04T01:16:55;99983.50;;;12.92;52.70
9893;BME280;4985;49.092;8.542;2023-03-04T01:19:22;99981.69;;;12.93;52.69
9893;BME280;4985;49.092;8.542;2023-03-04T01:21:48;99983.50;;;12.92;52.67
9893;BME280;4985;49.092;8.542;2023-03-04T01:24:15;99982.69;;;12.92;52.68
9893;BME280;4985;49.092;8.542;2023-03-04T01:26:41;99992.44;;;12.91;52.67
9893;BME280;4985;49.092;8.542;2023-03-04T01:29:09;99982.69;;;12.92;52.69
9893;BME280;4985;49.092;8.542;2023-03-04T01:31:36;99978.34;;;12.91;52.67
9893;BME280;4985;49.092;8.542;2023-03-04T01:34:02;99982.69;;;12.92;52.68
9893;BME280;4985;49.092;8.542;2023-03-04T01:36:29;99986.28;;;12.91;52.67
9893;BME280;4985;49.092;8.542;2023-03-04T01:38:56;99978.34;;;12.91;52.67
9893;BME280;4985;49.092;8.542;2023-03-04T01:41:24;99982.81;;;12.90;52.67
9893;BME280;4985;49.092;8.542;2023-03-04T01:43:53;99979.34;;;12.90;52.67
9893;BME280;4985;49.092;8.542;2023-03-04T01:46:23;99972.41;;;12.89;52.68
9893;BME280;4985;49.092;8.542;2023-03-04T01:48:49;99977.69;;;12.89;52.69
9893;BME280;4985;49.092;8.542;2023-03-04T01:51:17;99977.69;;;12.89;52.67
9893;BME280;4985;49.092;8.542;2023-03-04T01:53:47;99967.12;;;12.89;52.66
9893;BME280;4985;49.092;8.542;2023-03-04T01:56:21;99971.59;;;12.88;52.68
9893;BME280;4985;49.092;8.542;2023-03-04T01:59:10;99967.12;;;12.89;52.69
9893;BME280;4985;49.092;8.542;2023-03-04T02:01:39;99970.75;;;12.88;52.69
9893;BME280;4985;49.092;8.542;2023-03-04T02:04:08;99965.47;;;12.88;52.69
9893;BME280;4985;49.092;8.542;2023-03-04T02:06:36;99968.13;;;12.88;52.69
9893;BME280;4985;49.092;8.542;2023-03-04T02:09:04;99952.94;;;12.81;52.69
9893;BME280;4985;49.092;8.542;2023-03-04T02:11:31;99965.63;;;12.86;52.72
9893;BME280;4985;49.092;8.542;2023-03-04T02:13:58;99953.91;;;12.80;52.71
9893;BME280;4985;49.092;8.542;2023-03-04T02:16:25;99961.34;;;12.85;52.72
9893;BME280;4985;49.092;8.542;2023-03-04T02:18:54;99958.88;;;12.83;52.71
9893;BME280;4985;49.092;8.542;2023-03-04T02:21:22;99947.31;;;12.85;52.70
9893;BME280;4985;49.092;8.542;2023-03-04T02:23:56;99951.78;;;12.84;52.71
9893;BME280;4985;49.092;8.542;2023-03-04T02:26:28;99954.25;;;12.86;52.71
9893;BME280;4985;49.092;8.542;2023-03-04T02:28:57;99944.31;;;12.79;52.70
9893;BME280;4985;49.092;8.542;2023-03-04T02:31:27;99945.66;;;12.83;52.71
9893;BME280;4985;49.092;8.542;2023-03-04T02:33:57;99944.66;;;12.85;52.73
9893;BME280;4985;49.092;8.542;2023-03-04T02:36:24;99943.00;;;12.83;52.71
9893;BME280;4985;49.092;8.542;2023-03-04T02:38:52;99952.75;;;12.83;52.71
9893;BME280;4985;49.092;8.542;2023-03-04T02:41:24;99950.13;;;12.83;52.71
9893;BME280;4985;49.092;8.542;2023-03-04T02:43:54;99952.75;;;12.83;52.72
9893;BME280;4985;49.092;8.542;2023-03-04T02:46:21;99942.34;;;12.81;52.72
9893;BME280;4985;49.092;8.542;2023-03-04T02:48:48;99947.66;;;12.81;52.71
9893;BME280;4985;49.092;8.542;2023-03-04T02:51:15;99952.94;;;12.81;52.72
9893;BME280;4985;49.092;8.542;2023-03-04T02:53:41;99952.25;;;12.79;52.71
9893;BME280;4985;49.092;8.542;2023-03-04T02:56:08;99955.56;;;12.81;52.71
9893;BME280;4985;49.092;8.542;2023-03-04T02:58:34;99949.47;;;12.81;52.71
9893;BME280;4985;49.092;8.542;2023-03-04T03:01:04;99946.94;;;12.79;52.72
9893;BME280;4985;49.092;8.542;2023-03-04T03:03:30;99949.59;;;12.79;52.73
9893;BME280;4985;49.092;8.542;2023-03-04T03:05:57;99953.91;;;12.80;52.71
9893;BME280;4985;49.092;8.542;2023-03-04T03:08:24;99949.59;;;12.79;52.71
9893;BME280;4985;49.092;8.542;2023-03-04T03:10:50;99950.59;;;12.78;52.70
9893;BME280;4985;49.092;8.542;2023-03-04T03:13:17;99945.16;;;12.80;52.71
9893;BME280;4985;49.092;8.542;2023-03-04T03:15:43;99940.84;;;12.79;52.69
9893;BME280;4985;49.092;8.542;2023-03-04T03:18:11;99955.72;;;12.80;52.71
9893;BME280;4985;49.092;8.542;2023-03-04T03:20:38;99952.25;;;12.79;52.69
9893;BME280;4985;49.092;8.542;2023-03-04T03:23:04;99950.59;;;12.78;52.69
9893;BME280;4985;49.092;8.542;2023-03-04T03:25:31;99949.91;;;12.76;52.71
9893;BME280;4985;49.092;8.542;2023-03-04T03:27:58;99951.56;;;12.77;52.71
9893;BME280;4985;49.092;8.542;2023-03-04T03:30:24;99951.56;;;12.77;52.71
9893;BME280;4985;49.092;8.542;2023-03-04T03:32:51;99943.66;;;12.77;52.71
9893;BME280;4985;49.092;8.542;2023-03-04T03:35:19;99948.94;;;12.77;52.70
9893;BME280;4985;49.092;8.542;2023-03-04T03:37:45;99945.97;;;12.72;52.69
9893;BME280;4985;49.092;8.542;2023-03-04T03:40:13;99957.84;;;12.76;52.69
9893;BME280;4985;49.092;8.542;2023-03-04T03:42:40;99949.91;;;12.76;52.68
9893;BME280;4985;49.092;8.542;2023-03-04T03:45:07;99952.56;;;12.76;52.69
9893;BME280;4985;49.092;8.542;2023-03-04T03:47:34;99949.91;;;12.76;52.70
9893;BME280;4985;49.092;8.542;2023-03-04T03:50:01;99951.75;;;12.76;52.69
9893;BME280;4985;49.092;8.542;2023-03-04T03:52:28;99941.34;;;12.74;52.67
9893;BME280;4985;49.092;8.542;2023-03-04T03:54:55;99948.28;;;12.75;52.68
9893;BME280;4985;49.092;8.542;2023-03-04T03:57:21;99936.88;;;12.75;52.67
9893;BME280;4985;49.092;8.542;2023-03-04T03:59:48;99943.97;;;12.74;52.66
9893;BME280;4985;49.092;8.542;2023-03-04T04:02:15;99942.16;;;12.75;52.67
9893;BME280;4985;49.092;8.542;2023-03-04T04:04:41;99943.16;;;12.74;52.66
9893;BME280;4985;49.092;8.542;2023-03-04T04:07:08;99941.34;;;12.74;52.67
9893;BME280;4985;49.092;8.542;2023-03-04T04:09:36;99947.63;;;12.73;52.67
9893;BME280;4985;49.092;8.542;2023-03-04T04:12:03;99949.25;;;12.74;52.66
9893;BME280;4985;49.092;8.542;2023-03-04T04:14:30;99950.25;;;12.73;52.66
9893;BME280;4985;49.092;8.542;2023-03-04T04:16:57;99959.00;;;12.74;52.65
9893;BME280;4985;49.092;8.542;2023-03-04T04:19:23;99959.16;;;12.72;52.66
9893;BME280;4985;49.092;8.542;2023-03-04T04:21:50;99958.19;;;12.73;52.64
9893;BME280;4985;49.092;8.542;2023-03-04T04:24:16;99958.34;;;12.72;52.65
9893;BME280;4985;49.092;8.542;2023-03-04T04:26:44;99963.47;;;12.73;52.66
9893;BME280;4985;49.092;8.542;2023-03-04T04:29:12;99961.97;;;12.71;52.66
9893;BME280;4985;49.092;8.542;2023-03-04T04:31:40;99953.22;;;12.70;52.66
9893;BME280;4985;49.092;8.542;2023-03-04T04:34:06;99952.41;;;12.70;52.67
9893;BME280;4985;49.092;8.542;2023-03-04T04:36:33;99956.84;;;12.69;52.67
9893;BME280;4985;49.092;8.542;2023-03-04T04:38:59;99952.53;;;12.68;52.67
9893;BME280;4985;49.092;8.542;2023-03-04T04:41:30;99956.84;;;12.69;52.68
9893;BME280;4985;49.092;8.542;2023-03-04T04:43:58;99962.28;;;12.68;52.68
9893;BME280;4985;49.092;8.542;2023-03-04T04:46:25;99964.09;;;12.67;52.69
9893;BME280;4985;49.092;8.542;2023-03-04T04:48:52;99973.66;;;12.68;52.72
9893;BME280;4985;49.092;8.542;2023-03-04T04:51:19;99965.06;;;12.66;52.69
9893;BME280;4985;49.092;8.542;2023-03-04T04:53:46;99964.09;;;12.67;52.70
9893;BME280;4985;49.092;8.542;2023-03-04T04:56:16;99967.72;;;12.66;52.68
9893;BME280;4985;49.092;8.542;2023-03-04T04:58:43;99962.44;;;12.66;52.68
9893;BME280;4985;49.092;8.542;2023-03-04T05:01:12;99973.81;;;12.67;52.68
9893;BME280;4985;49.092;8.542;2023-03-04T05:03:39;99974.66;;;12.67;52.68
9893;BME280;4985;49.092;8.542;2023-03-04T05:06:07;99972.19;;;12.66;52.70
9893;BME280;4985;49.092;8.542;2023-03-04T05:08:35;99974.00;;;12.65;52.68
9893;BME280;4985;49.092;8.542;2023-03-04T05:11:03;99966.06;;;12.65;52.67
9893;BME280;4985;49.092;8.542;2023-03-04T05:13:30;99969.69;;;12.64;52.67
9893;BME280;4985;49.092;8.542;2023-03-04T05:15:57;99958.81;;;12.59;52.68
9893;BME280;4985;49.092;8.542;2023-03-04T05:18:25;99968.88;;;12.64;52.66
9893;BME280;4985;49.092;8.542;2023-03-04T05:20:53;99968.88;;;12.64;52.68
9893;BME280;4985;49.092;8.542;2023-03-04T05:23:21;99962.75;;;12.63;52.68
9893;BME280;4985;49.092;8.542;2023-03-04T05:25:47;99973.31;;;12.63;52.68
9893;BME280;4985;49.092;8.542;2023-03-04T05:28:14;99969.87;;;12.63;52.68
9893;BME280;4985;49.092;8.542;2023-03-04T05:30:42;99965.56;;;12.62;52.70
9893;BME280;4985;49.092;8.542;2023-03-04T05:33:10;99974.31;;;12.62;52.68
9893;BME280;4985;49.092;8.542;2023-03-04T05:35:39;99970.84;;;12.62;52.67
9893;BME280;4985;49.092;8.542;2023-03-04T05:38:08;99962.09;;;12.61;52.68
9893;BME280;4985;49.092;8.542;2023-03-04T05:40:35;99968.38;;;12.60;52.68
9893;BME280;4985;49.092;8.542;2023-03-04T05:43:02;99971.84;;;12.61;52.68
9893;BME280;4985;49.092;8.542;2023-03-04T05:45:29;99973.66;;;12.60;52.67
9893;BME280;4985;49.092;8.542;2023-03-04T05:47:55;99971.19;;;12.59;52.68
9893;BME280;4985;49.092;8.542;2023-03-04T05:50:22;99967.34;;;12.53;52.68
9893;BME280;4985;49.092;8.542;2023-03-04T05:52:50;99967.72;;;12.58;52.67
9893;BME280;4985;49.092;8.542;2023-03-04T05:55:17;99978.13;;;12.60;52.69
9893;BME280;4985;49.092;8.542;2023-03-04T05:57:44;99975.63;;;12.58;52.67
9893;BME280;4985;49.092;8.542;2023-03-04T06:00:12;99981.75;;;12.59;52.67
9893;BME280;4985;49.092;8.542;2023-03-04T06:02:40;99980.91;;;12.58;52.67
9893;BME280;4985;49.092;8.542;2023-03-04T06:05:08;99978.41;;;12.57;52.68
9893;BME280;4985;49.092;8.542;2023-03-04T06:07:35;99982.88;;;12.56;52.69
9893;BME280;4985;49.092;8.542;2023-03-04T06:10:04;99984.69;;;12.56;52.70
9893;BME280;4985;49.092;8.542;2023-03-04T06:12:30;99985.66;;;12.54;52.70
9893;BME280;4985;49.092;8.542;2023-03-04T06:14:57;99994.41;;;12.55;52.70
9893;BME280;4985;49.092;8.542;2023-03-04T06:17:24;99994.41;;;12.55;52.69
9893;BME280;4985;49.092;8.542;2023-03-04T06:19:50;99989.28;;;12.53;52.70
9893;BME280;4985;49.092;8.542;2023-03-04T06:22:17;99992.75;;;12.54;52.71
9893;BME280;4985;49.092;8.542;2023-03-04T06:24:43;100004.31;;;12.53;52.70
9893;BME280;4985;49.092;8.542;2023-03-04T06:27:11;100011.25;;;12.54;52.69
9893;BME280;4985;49.092;8.542;2023-03-04T06:29:40;100012.25;;;12.53;52.71
9893;BME280;4985;49.092;8.542;2023-03-04T06:32:07;100014.06;;;12.52;52.71
9893;BME280;4985;49.092;8.542;2023-03-04T06:34:33;100018.50;;;12.52;52.71
9893;BME280;4985;49.092;8.542;2023-03-04T06:37:00;100015.88;;;12.52;52.71
9893;BME280;4985;49.092;8.542;2023-03-04T06:39:27;100004.13;;;12.46;52.70
9893;BME280;4985;49.092;8.542;2023-03-04T06:41:53;100016.84;;;12.51;52.69
9893;BME280;4985;49.092;8.542;2023-03-04T06:44:21;100011.75;;;12.49;52.71
9893;BME280;4985;49.092;8.542;2023-03-04T06:46:48;100019.50;;;12.51;52.71
9893;BME280;4985;49.092;8.542;2023-03-04T06:49:15;100021.31;;;12.50;52.69
9893;BME280;4985;49.092;8.542;2023-03-04T06:51:41;100019.66;;;12.49;52.72
9893;BME280;4985;49.092;8.542;2023-03-04T06:54:08;100021.47;;;12.49;52.73
9893;BME280;4985;49.092;8.542;2023-03-04T06:56:35;100016.66;;;12.44;52.74
9893;BME280;4985;49.092;8.542;2023-03-04T06:59:02;100025.09;;;12.48;52.73
9893;BME280;4985;49.092;8.542;2023-03-04T07:01:29;100026.09;;;12.47;52.74
9893;BME280;4985;49.092;8.542;2023-03-04T07:03:56;100030.37;;;12.48;52.75
9893;BME280;4985;49.092;8.542;2023-03-04T07:06:26;100028.72;;;12.47;52.75
9893;BME280;4985;49.092;8.542;2023-03-04T07:08:53;100028.03;;;12.45;52.76
9893;BME280;4985;49.092;8.542;2023-03-04T07:11:20;100025.41;;;12.45;52.76
9893;BME280;4985;49.092;8.542;2023-03-04T07:13:47;100033.31;;;12.45;52.77
9893;BME280;4985;49.092;8.542;2023-03-04T07:16:16;100037.78;;;12.44;52.75
9893;BME280;4985;49.092;8.542;2023-03-04T07:18:45;100040.28;;;12.46;52.76
9893;BME280;4985;49.092;8.542;2023-03-04T07:21:12;100038.59;;;12.45;52.76
9893;BME280;4985;49.092;8.542;2023-03-04T07:23:39;100037.78;;;12.44;52.76
9893;BME280;4985;49.092;8.542;2023-03-04T07:26:06;100043.87;;;12.45;52.77
9893;BME280;4985;49.092;8.542;2023-03-04T07:28:34;100044.88;;;12.44;52.80
9893;BME280;4985;49.092;8.542;2023-03-04T07:31:08;100037.78;;;12.44;52.78
9893;BME280;4985;49.092;8.542;2023-03-04T07:33:35;100046.69;;;12.43;52.80
9893;BME280;4985;49.092;8.542;2023-03-04T07:36:03;100037.94;;;12.43;52.81
9893;BME280;4985;49.092;8.542;2023-03-04T07:38:30;100038.91;;;12.42;52.81
9893;BME280;4985;49.092;8.542;2023-03-04T07:40:57;100052.78;;;12.44;52.80
9893;BME280;4985;49.092;8.542;2023-03-04T07:43:24;100044.19;;;12.42;52.81
9893;BME280;4985;49.092;8.542;2023-03-04T07:45:50;100052.12;;;12.42;52.82
9893;BME280;4985;49.092;8.542;2023-03-04T07:48:17;100049.66;;;12.40;52.84
9893;BME280;4985;49.092;8.542;2023-03-04T07:50:43;100053.13;;;12.41;52.83
9893;BME280;4985;49.092;8.542;2023-03-04T07:53:11;100054.09;;;12.40;52.84
9893;BME280;4985;49.092;8.542;2023-03-04T07:55:38;100055.75;;;12.41;52.84
9893;BME280;4985;49.092;8.542;2023-03-04T07:58:04;100062.84;;;12.40;52.85
9893;BME280;4985;49.092;8.542;2023-03-04T08:00:31;100071.75;;;12.39;52.85
9893;BME280;4985;49.092;8.542;2023-03-04T08:02:58;100071.75;;;12.39;52.84
9893;BME280;4985;49.092;8.542;2023-03-04T08:05:24;100065.66;;;12.39;52.85
9893;BME280;4985;49.092;8.542;2023-03-04T08:07:51;100068.44;;;12.37;52.87
9893;BME280;4985;49.092;8.542;2023-03-04T08:10:19;100067.47;;;12.38;52.87
9893;BME280;4985;49.092;8.542;2023-03-04T08:12:46;100073.56;;;12.39;52.86
9893;BME280;4985;49.092;8.542;2023-03-04T08:15:12;100078.03;;;12.38;52.88
9893;BME280;4985;49.092;8.542;2023-03-04T08:17:39;100075.53;;;12.37;52.90
9893;BME280;4985;49.092;8.542;2023-03-04T08:20:06;100078.19;;;12.37;52.90
9893;BME280;4985;49.092;8.542;2023-03-04T08:22:33;100081.66;;;12.37;52.96
9893;BME280;4985;49.092;8.542;2023-03-04T08:24:59;100073.88;;;12.36;52.97
9893;BME280;4985;49.092;8.542;2023-03-04T08:27:27;100073.88;;;12.36;52.95
9893;BME280;4985;49.092;8.542;2023-03-04T08:29:54;100069.59;;;12.35;52.95
9893;BME280;4985;49.092;8.542;2023-03-04T08:32:20;100074.00;;;12.34;52.94
9893;BME280;4985;49.092;8.542;2023-03-04T08:34:47;100074.87;;;12.35;52.97
9893;BME280;4985;49.092;8.542;2023-03-04T08:37:14;100073.19;;;12.34;52.97
9893;BME280;4985;49.092;8.542;2023-03-04T08:39:40;100074.00;;;12.34;52.99
9893;BME280;4985;49.092;8.542;2023-03-04T08:42:07;100074.00;;;12.34;52.99
9893;BME280;4985;49.092;8.542;2023-03-04T08:44:35;100072.22;;;12.35;52.98
9893;BME280;4985;49.092;8.542;2023-03-04T08:47:01;100072.22;;;12.35;52.97
9893;BME280;4985;49.092;8.542;2023-03-04T08:49:28;100072.22;;;12.35;52.97
9893;BME280;4985;49.092;8.542;2023-03-04T08:51:54;100073.19;;;12.34;52.99
9893;BME280;4985;49.092;8.542;2023-03-04T08:54:21;100074.19;;;12.33;53.02
9893;BME280;4985;49.092;8.542;2023-03-04T08:56:48;100071.53;;;12.33;53.01
9893;BME280;4985;49.092;8.542;2023-03-04T08:59:14;100069.88;;;12.32;53.03
9893;BME280;4985;49.092;8.542;2023-03-04T09:01:42;100074.34;;;12.31;53.06
9893;BME280;4985;49.092;8.542;2023-03-04T09:04:09;100069.06;;;12.31;53.06
9893;BME280;4985;49.092;8.542;2023-03-04T09:06:35;100069.88;;;12.32;53.05
9893;BME280;4985;49.092;8.542;2023-03-04T09:09:02;100069.88;;;12.32;53.06
9893;BME280;4985;49.092;8.542;2023-03-04T09:11:29;100071.69;;;12.31;53.06
9893;BME280;4985;49.092;8.542;2023-03-04T09:13:56;100068.22;;;12.31;53.07
9893;BME280;4985;49.092;8.542;2023-03-04T09:16:22;100072.69;;;12.30;53.11
9893;BME280;4985;49.092;8.542;2023-03-04T09:18:50;100072.69;;;12.30;53.12
9893;BME280;4985;49.092;8.542;2023-03-04T09:21:17;100070.03;;;12.30;53.11
9893;BME280;4985;49.092;8.542;2023-03-04T09:23:43;100063.94;;;12.30;53.13
9893;BME280;4985;49.092;8.542;2023-03-04T09:26:15;100067.56;;;12.29;53.13
9893;BME280;4985;49.092;8.542;2023-03-04T09:28:42;100066.56;;;12.30;53.13
9893;BME280;4985;49.092;8.542;2023-03-04T09:31:12;100069.38;;;12.28;53.15
9893;BME280;4985;49.092;8.542;2023-03-04T09:33:40;100064.91;;;12.29;53.16
9893;BME280;4985;49.092;8.542;2023-03-04T09:36:09;100063.25;;;12.28;53.19
9893;BME280;4985;49.092;8.542;2023-03-04T09:38:36;100064.25;;;12.27;53.21
9893;BME280;4985;49.092;8.542;2023-03-04T09:41:06;100060.78;;;12.26;53.23
9893;BME280;4985;49.092;8.542;2023-03-04T09:43:34;100071.34;;;12.26;53.25
9893;BME280;4985;49.092;8.542;2023-03-04T09:46:04;100077.44;;;12.27;53.25
9893;BME280;4985;49.092;8.542;2023-03-04T09:48:39;100078.28;;;12.27;53.25
9893;BME280;4985;49.092;8.542;2023-03-04T09:51:18;100073.81;;;12.28;53.24
9893;BME280;4985;49.092;8.542;2023-03-04T09:53:51;100072.16;;;12.27;53.26
9893;BME280;4985;49.092;8.542;2023-03-04T09:56:21;100075.63;;;12.27;53.27
9893;BME280;4985;49.092;8.542;2023-03-04T09:58:56;100078.28;;;12.27;53.27
9893;BME280;4985;49.092;8.542;2023-03-04T10:01:30;100082.72;;;12.27;53.28
9893;BME280;4985;49.092;8.542;2023-03-04T10:04:02;100080.91;;;12.27;53.31
9893;BME280;4985;49.092;8.542;2023-03-04T10:06:33;100069.16;;;12.21;53.36
9893;BME280;4985;49.092;8.542;2023-03-04T10:09:02;100085.38;;;12.27;53.36
9893;BME280;4985;49.092;8.542;2023-03-04T10:11:34;100082.72;;;12.27;53.39
9893;BME280;4985;49.092;8.542;2023-03-04T10:14:15;100079.41;;;12.24;53.40
9893;BME280;4985;49.092;8.542;2023-03-04T10:16:46;100078.06;;;12.20;53.39
9893;BME280;4985;49.092;8.542;2023-03-04T10:19:29;100085.38;;;12.27;53.41
9893;BME280;4985;49.092;8.542;2023-03-04T10:21:58;100077.59;;;12.25;53.40
9893;BME280;4985;49.092;8.542;2023-03-04T10:24:27;100076.62;;;12.26;53.43
9893;BME280;4985;49.092;8.542;2023-03-04T10:26:58;100075.78;;;12.26;53.42
9893;BME280;4985;49.092;8.542;2023-03-04T10:29:27;100077.06;;;12.21;53.43
9893;BME280;4985;49.092;8.542;2023-03-04T10:31:55;100079.41;;;12.24;53.44
9893;BME280;4985;49.092;8.542;2023-03-04T10:34:22;100077.78;;;12.23;53.45
9893;BME280;4985;49.092;8.542;2023-03-04T10:36:53;100080.41;;;12.23;53.47
9893;BME280;4985;49.092;8.542;2023-03-04T10:39:26;100077.78;;;12.23;53.47
9893;BME280;4985;49.092;8.542;2023-03-04T10:41:56;100077.59;;;12.25;53.45
9893;BME280;4985;49.092;8.542;2023-03-04T10:44:24;100077.28;;;12.28;53.37
9893;BME280;4985;49.092;8.542;2023-03-04T10:46:53;100075.13;;;12.23;53.36
9893;BME280;4985;49.092;8.542;2023-03-04T10:49:21;100076.78;;;12.24;53.33
9893;BME280;4985;49.092;8.542;2023-03-04T10:51:50;100080.75;;;12.29;53.32
9893;BME280;4985;49.092;8.542;2023-03-04T10:54:27;100074.50;;;12.30;53.28
9893;BME280;4985;49.092;8.542;2023-03-04T10:56:58;100067.72;;;12.27;53.30
9893;BME280;4985;49.092;8.542;2023-03-04T10:59:39;100067.72;;;12.27;53.32
9893;BME280;4985;49.092;8.542;2023-03-04T11:02:19;100060.94;;;12.24;53.36
9893;BME280;4985;49.092;8.542;2023-03-04T11:05:04;100061.94;;;12.23;53.39
9893;BME280;4985;49.092;8.542;2023-03-04T11:07:31;100049.41;;;12.26;53.37
9893;BME280;4985;49.092;8.542;2023-03-04T11:10:16;100050.00;;;12.19;53.39
9893;BME280;4985;49.092;8.542;2023-03-04T11:12:48;100045.72;;;12.18;53.45
9893;BME280;4985;49.092;8.542;2023-03-04T11:15:17;100054.97;;;12.22;53.45
9893;BME280;4985;49.092;8.542;2023-03-04T11:17:47;100053.03;;;12.24;53.42
9893;BME280;4985;49.092;8.542;2023-03-04T11:20:20;100057.31;;;12.26;53.39
9893;BME280;4985;49.092;8.542;2023-03-04T11:22:51;100046.09;;;12.23;53.39
9893;BME280;4985;49.092;8.542;2023-03-04T11:25:24;100049.41;;;12.26;53.38
9893;BME280;4985;49.092;8.542;2023-03-04T11:27:53;100057.16;;;12.27;53.35
9893;BME280;4985;49.092;8.542;2023-03-04T11:30:28;100047.44;;;12.28;53.34
9893;BME280;4985;49.092;8.542;2023-03-04T11:33:07;100048.41;;;12.27;53.36
9893;BME280;4985;49.092;8.542;2023-03-04T11:35:43;100044.94;;;12.26;53.35
9893;BME280;4985;49.092;8.542;2023-03-04T11:38:16;100036.87;;;12.28;53.34
9893;BME280;4985;49.092;8.542;2023-03-04T11:40:49;100037.69;;;12.28;53.33
9893;BME280;4985;49.092;8.542;2023-03-04T11:43:21;100035.88;;;12.29;53.32
9893;BME280;4985;49.092;8.542;2023-03-04T11:46:14;100038.53;;;12.29;53.32
9893;BME280;4985;49.092;8.542;2023-03-04T11:48:53;100036.87;;;12.28;53.31
9893;BME280;4985;49.092;8.542;2023-03-04T11:51:34;100028.28;;;12.26;53.31
9893;BME280;4985;49.092;8.542;2023-03-04T11:54:17;100036.03;;;12.27;53.35
9893;BME280;4985;49.092;8.542;2023-03-04T11:56:48;100015.38;;;12.22;53.38
9893;BME280;4985;49.092;8.542;2023-03-04T12:02:16;100022.84;;;12.27;53.35
9893;BME280;4985;49.092;8.542;2023-03-04T12:05:00;100016.41;;;12.30;53.31
9893;BME280;4985;49.092;8.542;2023-03-04T12:07:45;100021.69;;;12.30;53.28
9893;BME280;4985;49.092;8.542;2023-03-04T12:10:23;100017.41;;;12.29;53.28
9893;BME280;4985;49.092;8.542;2023-03-04T12:13:06;100014.75;;;12.29;53.31
9893;BME280;4985;49.092;8.542;2023-03-04T12:15:41;100008.81;;;12.27;53.32
9893;BME280;4985;49.092;8.542;2023-03-04T12:18:29;100002.72;;;12.26;53.35
9893;BME280;4985;49.092;8.542;2023-03-04T12:21:16;100008.66;;;12.28;53.34
9893;BME280;4985;49.092;8.542;2023-03-04T12:24:07;99998.09;;;12.28;53.32
9893;BME280;4985;49.092;8.542;2023-03-04T12:26:45;99989.34;;;12.28;53.32
9893;BME280;4985;49.092;8.542;2023-03-04T12:29:21;99987.69;;;12.27;53.35
9893;BME280;4985;49.092;8.542;2023-03-04T12:32:00;99990.34;;;12.27;53.35
9893;BME280;4985;49.092;8.542;2023-03-04T12:34:37;99985.87;;;12.27;53.34
9893;BME280;4985;49.092;8.542;2023-03-04T12:37:31;99977.97;;;12.27;53.32
9893;BME280;4985;49.092;8.542;2023-03-04T12:40:25;99975.16;;;12.29;53.30
9893;BME280;4985;49.092;8.542;2023-03-04T12:43:06;99969.87;;;12.29;53.31
9893;BME280;4985;49.092;8.542;2023-03-04T12:45:40;99962.13;;;12.27;53.32
9893;BME280;4985;49.092;8.542;2023-03-04T12:48:22;99970.19;;;12.26;53.37
9893;BME280;4985;49.092;8.542;2023-03-04T12:50:58;99971.19;;;12.24;53.41
9893;BME280;4985;49.092;8.542;2023-03-04T12:53:32;99967.72;;;12.24;53.44
9893;BME280;4985;49.092;8.542;2023-03-04T12:56:02;99962.28;;;12.26;53.41
9893;BME280;4985;49.092;8.542;2023-03-04T12:58:31;99963.94;;;12.27;53.38
9893;BME280;4985;49.092;8.542;2023-03-04T13:01:05;99955.19;;;12.26;53.36
9893;BME280;4985;49.092;8.542;2023-03-04T13:03:42;99956.00;;;12.27;53.36
9893;BME280;4985;49.092;8.542;2023-03-04T13:06:19;99959.47;;;12.27;53.35
9893;BME280;4985;49.092;8.542;2023-03-04T13:09:06;99955.84;;;12.28;53.32
9893;BME280;4985;49.092;8.542;2023-03-04T13:11:55;99959.31;;;12.29;53.34
9893;BME280;4985;49.092;8.542;2023-03-04T13:14:29;99956.69;;;12.29;53.34
9893;BME280;4985;49.092;8.542;2023-03-04T13:16:58;99954.03;;;12.29;53.31
9893;BME280;4985;49.092;8.542;2023-03-04T13:19:47;99954.87;;;12.29;53.29
9893;BME280;4985;49.092;8.542;2023-03-04T13:22:44;99944.47;;;12.28;53.27
9893;BME280;4985;49.092;8.542;2023-03-04T13:25:39;99947.94;;;12.28;53.34
9893;BME280;4985;49.092;8.542;2023-03-04T13:28:19;99952.38;;;12.28;53.33
9893;BME280;4985;49.092;8.542;2023-03-04T13:33:59;99949.75;;;12.28;53.31
9893;BME280;4985;49.092;8.542;2023-03-04T13:39:33;99944.78;;;12.24;53.40